createdAt,value
2023-01-18T00:00:45.877Z,3.67
2023-01-18T00:02:11.256Z,3.35
2023-01-18T00:03:14.862Z,3.63
2023-01-18T00:04:40.060Z,3.33
2023-01-18T00:05:43.613Z,3.88
2023-01-18T00:06:48.978Z,3.40
2023-01-18T00:08:15.870Z,3.42
2023-01-18T00:09:17.524Z,3.60
2023-01-18T00:10:46.756Z,3.78
2023-01-18T00:12:06.584Z,3.92
2023-01-18T00:13:41.382Z,5.55
2023-01-18T00:14:52.462Z,3.50
2023-01-18T00:16:03.151Z,3.75
2023-01-18T00:17:29.672Z,3.72
2023-01-18T00:18:35.208Z,5.30
2023-01-18T00:19:38.220Z,3.88
2023-01-18T00:21:06.183Z,4.10
2023-01-18T00:22:45.199Z,4.60
2023-01-18T00:23:31.316Z,3.63
2023-01-18T00:24:35.359Z,3.50
2023-01-18T00:25:39.232Z,3.65
2023-01-18T00:26:44.997Z,4.13
2023-01-18T00:28:15.081Z,3.70
2023-01-18T00:29:18.855Z,4.10
2023-01-18T00:30:46.862Z,3.83
2023-01-18T00:31:50.068Z,3.83
2023-01-18T00:32:59.511Z,3.50
2023-01-18T00:34:04.861Z,3.45
2023-01-18T00:35:31.077Z,3.63
2023-01-18T00:36:38.647Z,3.30
2023-01-18T00:37:43.413Z,4.85
2023-01-18T00:38:57.016Z,3.65
2023-01-18T00:40:30.163Z,3.72
2023-01-18T00:41:37.503Z,3.35
2023-01-18T00:43:05.666Z,3.28
2023-01-18T00:44:41.202Z,3.42
2023-01-18T00:46:09.959Z,3.33
2023-01-18T00:46:57.574Z,3.42
2023-01-18T00:48:22.585Z,3.42
2023-01-18T00:49:54.252Z,4.18
2023-01-18T00:50:49.933Z,3.42
2023-01-18T00:52:15.049Z,3.53
2023-01-18T00:53:53.767Z,3.63
2023-01-18T00:54:44.703Z,3.22
2023-01-18T00:56:25.591Z,3.28
2023-01-18T00:57:49.025Z,3.55
2023-01-18T00:59:13.241Z,3.50
2023-01-18T01:00:23.558Z,3.17
2023-01-18T01:01:52.882Z,3.53
2023-01-18T01:02:46.357Z,3.78
2023-01-18T01:04:08.742Z,2.97
2023-01-18T01:06:04.771Z,3.70
2023-01-18T01:07:23.465Z,3.40
2023-01-18T01:08:28.254Z,3.47
2023-01-18T01:09:32.555Z,2.85
2023-01-18T01:11:08.331Z,2.85
2023-01-18T01:12:19.141Z,3.70
2023-01-18T01:13:41.712Z,3.20
2023-01-18T01:15:29.635Z,3.70
2023-01-18T01:17:11.705Z,5.35
2023-01-18T01:18:33.885Z,4.00
2023-01-18T01:20:21.850Z,3.45
2023-01-18T01:21:42.453Z,2.97
2023-01-18T01:23:25.890Z,2.85
2023-01-18T01:25:12.428Z,3.25
2023-01-18T01:26:13.018Z,3.35
2023-01-18T01:27:17.659Z,3.63
2023-01-18T01:28:20.672Z,3.53
2023-01-18T01:29:25.904Z,3.00
2023-01-18T01:30:29.032Z,2.95
2023-01-18T01:31:34.218Z,3.13
2023-01-18T01:32:38.167Z,3.50
2023-01-18T01:33:42.842Z,3.80
2023-01-18T01:34:46.667Z,3.33
2023-01-18T01:35:51.973Z,3.05
2023-01-18T01:36:55.925Z,3.15
2023-01-18T01:37:58.945Z,3.70
2023-01-18T01:39:03.152Z,3.30
2023-01-18T01:40:36.750Z,3.50
2023-01-18T01:41:37.012Z,3.38
2023-01-18T01:42:45.887Z,3.15
2023-01-18T01:43:56.027Z,3.22
2023-01-18T01:45:00.065Z,3.33
2023-01-18T01:46:34.255Z,3.03
2023-01-18T01:47:39.675Z,3.22
2023-01-18T01:48:45.492Z,3.40
2023-01-18T01:49:59.969Z,3.22
2023-01-18T01:51:37.708Z,3.35
2023-01-18T01:52:36.586Z,4.78
2023-01-18T01:54:02.068Z,3.35
2023-01-18T01:55:21.547Z,2.90
2023-01-18T01:56:25.648Z,3.15
2023-01-18T01:57:34.449Z,3.47
2023-01-18T01:59:07.563Z,3.10
2023-01-18T02:00:29.985Z,3.10
2023-01-18T02:01:31.841Z,2.90
2023-01-18T02:02:36.997Z,3.10
2023-01-18T02:03:41.200Z,2.90
2023-01-18T02:04:46.827Z,2.85
2023-01-18T02:06:22.194Z,2.78
2023-01-18T02:07:29.155Z,2.85
2023-01-18T02:08:42.672Z,2.97
2023-01-18T02:11:09.606Z,2.50
2023-01-18T02:12:19.519Z,3.15
2023-01-18T02:13:54.940Z,3.33
2023-01-18T02:14:50.535Z,2.78
2023-01-18T02:16:10.412Z,3.03
2023-01-18T02:17:36.542Z,2.85
2023-01-18T02:19:02.497Z,2.97
2023-01-18T02:20:40.970Z,3.38
2023-01-18T02:21:58.678Z,2.95
2023-01-18T02:23:34.403Z,2.75
2023-01-18T02:25:04.964Z,2.95
2023-01-18T02:26:44.544Z,3.40
2023-01-18T02:28:22.547Z,2.25
2023-01-18T02:29:48.738Z,3.13
2023-01-18T02:30:50.811Z,3.22
2023-01-18T02:32:31.512Z,2.97
2023-01-18T02:33:54.794Z,2.55
2023-01-18T02:35:12.479Z,2.80
2023-01-18T02:36:31.638Z,2.78
2023-01-18T02:39:26.253Z,2.63
2023-01-18T02:40:39.734Z,2.42
2023-01-18T02:42:08.520Z,2.42
2023-01-18T02:44:04.377Z,3.05
2023-01-18T02:45:23.118Z,2.67
2023-01-18T02:46:36.336Z,2.85
2023-01-18T02:47:42.032Z,2.70
2023-01-18T02:49:16.932Z,3.28
2023-01-18T02:50:15.191Z,2.85
2023-01-18T02:51:20.487Z,2.88
2023-01-18T02:52:53.835Z,2.90
2023-01-18T02:54:27.839Z,3.38
2023-01-18T02:56:11.162Z,2.90
2023-01-18T02:57:14.124Z,2.95
2023-01-18T02:58:54.946Z,2.97
2023-01-18T03:00:00.668Z,2.85
2023-01-18T03:01:21.790Z,2.60
2023-01-18T03:02:51.334Z,3.38
2023-01-18T03:03:58.850Z,3.17
2023-01-18T03:05:04.758Z,2.63
2023-01-18T03:06:14.176Z,2.85
2023-01-18T03:07:35.758Z,2.97
2023-01-18T03:09:19.952Z,3.05
2023-01-18T03:10:15.913Z,2.70
2023-01-18T03:11:51.748Z,2.63
2023-01-18T03:13:07.765Z,3.15
2023-01-18T03:14:49.556Z,2.72
2023-01-18T03:16:01.616Z,2.80
2023-01-18T03:17:57.663Z,3.30
2023-01-18T03:19:07.579Z,2.33
2023-01-18T03:20:13.427Z,2.80
2023-01-18T03:21:18.815Z,2.70
2023-01-18T03:22:45.686Z,2.50
2023-01-18T03:23:52.075Z,2.80
2023-01-18T03:24:55.042Z,3.17
2023-01-18T03:26:24.630Z,2.15
2023-01-18T03:28:04.453Z,3.25
2023-01-18T03:29:25.848Z,3.63
2023-01-18T03:31:16.975Z,2.83
2023-01-18T03:33:06.323Z,2.72
2023-01-18T03:34:30.064Z,2.38
2023-01-18T03:35:34.378Z,2.53
2023-01-18T03:36:43.909Z,2.33
2023-01-18T03:37:49.095Z,2.55
2023-01-18T03:39:04.420Z,2.47
2023-01-18T03:40:50.129Z,2.90
2023-01-18T03:41:59.269Z,3.60
2023-01-18T03:44:05.001Z,2.97
2023-01-18T03:45:22.694Z,2.53
2023-01-18T03:46:33.579Z,2.67
2023-01-18T03:47:41.143Z,2.78
2023-01-18T03:48:44.360Z,2.60
2023-01-18T03:50:01.097Z,2.67
2023-01-18T03:51:30.410Z,2.50
2023-01-18T03:53:13.312Z,2.45
2023-01-18T03:54:53.584Z,2.22
2023-01-18T03:56:02.277Z,2.35
2023-01-18T03:57:10.767Z,2.58
2023-01-18T03:58:49.779Z,2.72
2023-01-18T03:59:46.332Z,2.83
2023-01-18T04:00:53.801Z,2.47
2023-01-18T04:01:58.608Z,3.00
2023-01-18T04:03:02.236Z,2.90
2023-01-18T04:04:29.212Z,2.75
2023-01-18T04:05:30.620Z,2.47
2023-01-18T04:07:03.888Z,3.20
2023-01-18T04:07:58.019Z,2.47
2023-01-18T04:09:04.783Z,2.90
2023-01-18T04:10:30.358Z,2.90
2023-01-18T04:11:33.592Z,2.50
2023-01-18T04:12:38.405Z,3.05
2023-01-18T04:13:42.508Z,2.75
2023-01-18T04:15:10.061Z,2.67
2023-01-18T04:16:13.205Z,2.50
2023-01-18T04:17:16.355Z,2.65
2023-01-18T04:18:19.446Z,2.83
2023-01-18T04:19:22.697Z,2.65
2023-01-18T04:20:25.743Z,2.83
2023-01-18T04:21:28.808Z,2.47
2023-01-18T04:23:09.652Z,2.92
2023-01-18T04:23:57.584Z,3.40
2023-01-18T04:25:00.805Z,2.75
2023-01-18T04:26:41.274Z,2.53
2023-01-18T04:28:04.873Z,3.08
2023-01-18T04:28:51.025Z,2.53
2023-01-18T04:30:16.140Z,2.97
2023-01-18T04:31:40.778Z,2.65
2023-01-18T04:32:44.306Z,4.60
2023-01-18T04:33:47.236Z,2.58
2023-01-18T04:34:50.467Z,2.72
2023-01-18T04:36:20.396Z,2.92
2023-01-18T04:37:31.510Z,2.88
2023-01-18T04:38:34.334Z,2.92
2023-01-18T04:40:01.724Z,3.58
2023-01-18T04:41:07.550Z,2.95
2023-01-18T04:42:10.472Z,2.80
2023-01-18T04:43:43.357Z,2.92
2023-01-18T04:45:07.407Z,2.90
2023-01-18T04:46:31.839Z,3.08
2023-01-18T04:47:55.011Z,2.97
2023-01-18T04:48:53.209Z,3.17
2023-01-18T04:50:21.327Z,3.00
2023-01-18T04:51:30.283Z,2.70
2023-01-18T04:52:58.768Z,2.88
2023-01-18T04:54:22.540Z,2.60
2023-01-18T04:55:26.042Z,3.53
2023-01-18T04:56:30.918Z,3.05
2023-01-18T04:57:35.748Z,3.22
2023-01-18T04:59:08.690Z,2.97
2023-01-18T05:00:08.550Z,3.10
2023-01-18T05:01:20.585Z,3.30
2023-01-18T05:02:23.599Z,2.78
2023-01-18T05:03:56.457Z,2.95
2023-01-18T05:04:52.315Z,2.92
2023-01-18T05:05:57.885Z,2.20
2023-01-18T05:07:30.854Z,2.53
2023-01-18T05:09:53.205Z,2.53
2023-01-18T05:11:11.229Z,3.03
2023-01-18T05:12:26.675Z,2.85
2023-01-18T05:13:44.081Z,3.97
2023-01-18T05:15:17.108Z,3.35
2023-01-18T05:16:18.650Z,2.95
2023-01-18T05:17:51.692Z,3.17
2023-01-18T05:19:16.220Z,2.42
2023-01-18T05:20:13.007Z,3.13
2023-01-18T05:21:46.798Z,2.88
2023-01-18T05:22:41.571Z,2.95
2023-01-18T05:23:45.658Z,3.22
2023-01-18T05:25:11.206Z,3.50
2023-01-18T05:26:23.294Z,3.25
2023-01-18T05:27:48.320Z,3.17
2023-01-18T05:28:52.882Z,3.05
2023-01-18T05:30:17.988Z,3.40
2023-01-18T05:31:22.378Z,3.42
2023-01-18T05:33:03.110Z,2.85
2023-01-18T05:34:12.164Z,3.28
2023-01-18T05:35:43.494Z,3.83
2023-01-18T05:36:38.515Z,3.53
2023-01-18T05:38:19.052Z,3.78
2023-01-18T05:39:35.153Z,3.22
2023-01-18T05:40:28.651Z,3.42
2023-01-18T05:41:33.616Z,2.75
2023-01-18T05:42:59.034Z,3.03
2023-01-18T05:44:02.235Z,3.88
2023-01-18T05:45:07.224Z,3.70
2023-01-18T05:46:32.306Z,3.58
2023-01-18T05:48:11.143Z,3.33
2023-01-18T05:49:01.399Z,3.00
2023-01-18T05:50:07.408Z,3.53
2023-01-18T05:51:12.859Z,3.03
2023-01-18T05:52:15.972Z,4.82
2023-01-18T05:53:23.158Z,3.30
2023-01-18T05:54:48.316Z,3.63
2023-01-18T05:56:07.645Z,3.13
2023-01-18T05:57:13.010Z,3.67
2023-01-18T05:58:16.921Z,3.63
2023-01-18T05:59:19.680Z,3.60
2023-01-18T06:00:25.465Z,3.25
2023-01-18T06:01:45.834Z,3.47
2023-01-18T06:03:10.989Z,4.25
2023-01-18T06:04:12.260Z,3.40
2023-01-18T06:05:16.391Z,3.70
2023-01-18T06:06:19.227Z,3.00
2023-01-18T06:07:22.377Z,3.40
2023-01-18T06:08:55.577Z,3.50
2023-01-18T06:09:51.429Z,3.22
2023-01-18T06:11:01.035Z,2.88
2023-01-18T06:12:05.137Z,3.97
2023-01-18T06:13:08.280Z,3.35
2023-01-18T06:14:12.251Z,3.38
2023-01-18T06:15:49.573Z,3.67
2023-01-18T06:16:39.552Z,3.15
2023-01-18T06:17:58.335Z,3.65
2023-01-18T06:19:01.321Z,3.90
2023-01-18T06:20:06.370Z,3.33
2023-01-18T06:21:11.168Z,3.60
2023-01-18T06:22:16.284Z,3.53
2023-01-18T06:23:56.897Z,3.50
2023-01-18T06:24:43.589Z,3.55
2023-01-18T06:25:46.465Z,3.53
2023-01-18T06:26:49.406Z,3.67
2023-01-18T06:27:53.768Z,4.03
2023-01-18T06:28:56.763Z,3.75
2023-01-18T06:30:02.151Z,4.05
2023-01-18T06:31:29.667Z,3.35
2023-01-18T06:32:30.695Z,3.65
2023-01-18T06:33:37.167Z,3.45
2023-01-18T06:34:42.183Z,3.45
2023-01-18T06:35:45.242Z,3.20
2023-01-18T06:36:50.084Z,3.70
2023-01-18T06:38:23.227Z,3.33
2023-01-18T06:39:16.706Z,3.67
2023-01-18T06:40:41.861Z,3.35
2023-01-18T06:41:43.456Z,3.13
2023-01-18T06:42:49.093Z,3.42
2023-01-18T06:44:14.384Z,3.88
2023-01-18T06:45:16.646Z,3.50
2023-01-18T06:46:20.161Z,3.60
2023-01-18T06:47:30.389Z,3.72
2023-01-18T06:48:33.408Z,3.40
2023-01-18T06:50:08.827Z,3.92
2023-01-18T06:50:59.804Z,3.95
2023-01-18T06:52:35.351Z,3.92
2023-01-18T06:53:29.633Z,3.20
2023-01-18T06:54:36.825Z,3.33
2023-01-18T06:55:39.817Z,3.13
2023-01-18T06:56:43.208Z,3.67
2023-01-18T06:57:52.187Z,3.63
2023-01-18T06:58:57.614Z,3.58
2023-01-18T07:00:04.457Z,3.53
2023-01-18T07:01:07.554Z,4.03
2023-01-18T07:02:24.326Z,3.47
2023-01-18T07:03:28.865Z,3.75
2023-01-18T07:04:38.209Z,3.55
2023-01-18T07:05:55.409Z,3.80
2023-01-18T07:06:58.909Z,3.72
2023-01-18T07:08:01.735Z,3.90
2023-01-18T07:09:08.398Z,3.75
2023-01-18T07:10:11.837Z,3.30
2023-01-18T07:11:15.866Z,3.72
2023-01-18T07:12:36.561Z,3.28
2023-01-18T07:13:43.955Z,3.35
2023-01-18T07:14:47.423Z,3.45
2023-01-18T07:15:56.975Z,4.60
2023-01-18T07:17:02.087Z,2.95
2023-01-18T07:18:04.997Z,3.45
2023-01-18T07:19:08.355Z,3.75
2023-01-18T07:20:14.240Z,3.67
2023-01-18T07:21:19.463Z,3.17
2023-01-18T07:22:44.903Z,3.50
2023-01-18T07:23:46.635Z,3.47
2023-01-18T07:24:52.814Z,3.47
2023-01-18T07:26:04.849Z,3.20
2023-01-18T07:27:07.714Z,3.38
2023-01-18T07:28:10.578Z,3.58
2023-01-18T07:29:13.554Z,3.45
2023-01-18T07:30:17.258Z,3.40
2023-01-18T07:31:20.455Z,3.67
2023-01-18T07:32:23.488Z,3.90
2023-01-18T07:33:26.790Z,4.03
2023-01-18T07:34:29.682Z,3.72
2023-01-18T07:35:32.607Z,3.55
2023-01-18T07:36:35.699Z,3.50
2023-01-18T07:37:38.950Z,3.17
2023-01-18T07:38:58.592Z,4.80
2023-01-18T07:40:01.462Z,3.50
2023-01-18T07:41:15.396Z,3.40
2023-01-18T07:42:19.266Z,3.33
2023-01-18T07:43:22.214Z,3.50
2023-01-18T07:44:25.394Z,2.92
2023-01-18T07:45:28.183Z,3.38
2023-01-18T07:46:31.491Z,3.42
2023-01-18T07:47:34.669Z,3.47
2023-01-18T07:48:39.124Z,3.20
2023-01-18T07:49:43.224Z,3.80
2023-01-18T07:50:56.323Z,3.70
2023-01-18T07:53:05.173Z,3.28
2023-01-18T07:54:08.037Z,3.22
2023-01-18T07:55:10.959Z,3.53
2023-01-18T07:56:16.497Z,3.55
2023-01-18T07:57:19.754Z,3.78
2023-01-18T07:58:23.689Z,3.17
2023-01-18T07:59:28.292Z,3.13
2023-01-18T08:00:31.232Z,3.00
2023-01-18T08:01:34.175Z,3.33
2023-01-18T08:02:37.202Z,3.33
2023-01-18T08:03:40.233Z,3.28
2023-01-18T08:04:43.580Z,3.38
2023-01-18T08:05:47.647Z,3.70
2023-01-18T08:06:51.280Z,3.30
2023-01-18T08:07:54.524Z,3.30
2023-01-18T08:08:57.741Z,3.60
2023-01-18T08:10:00.537Z,2.95
2023-01-18T08:11:05.603Z,3.53
2023-01-18T08:12:11.678Z,3.30
2023-01-18T08:13:14.561Z,3.15
2023-01-18T08:14:21.212Z,2.63
2023-01-18T08:15:24.094Z,3.20
2023-01-18T08:16:27.273Z,2.80
2023-01-18T08:17:31.164Z,3.08
2023-01-18T08:18:34.078Z,2.83
2023-01-18T08:19:37.016Z,2.78
2023-01-18T08:20:40.910Z,2.83
2023-01-18T08:21:45.096Z,2.88
2023-01-18T08:22:48.718Z,2.95
2023-01-18T08:23:54.032Z,3.03
2023-01-18T08:24:57.004Z,3.72
2023-01-18T08:26:04.262Z,3.38
2023-01-18T08:27:07.073Z,3.05
2023-01-18T08:28:11.030Z,3.10
2023-01-18T08:29:14.389Z,2.90
2023-01-18T08:30:17.727Z,2.83
2023-01-18T08:31:24.836Z,3.15
2023-01-18T08:32:28.334Z,3.10
2023-01-18T08:33:31.256Z,3.38
2023-01-18T08:34:34.146Z,3.10
2023-01-18T08:35:48.291Z,2.53
2023-01-18T08:36:51.345Z,3.20
2023-01-18T08:37:54.844Z,2.92
2023-01-18T08:38:58.161Z,2.97
2023-01-18T08:40:01.299Z,3.35
2023-01-18T08:41:06.168Z,3.13
2023-01-18T08:42:12.991Z,3.10
2023-01-18T08:43:16.062Z,3.00
2023-01-18T08:44:19.239Z,3.00
2023-01-18T08:45:22.397Z,2.58
2023-01-18T08:46:25.825Z,3.05
2023-01-18T08:47:28.715Z,3.42
2023-01-18T08:48:32.594Z,2.78
2023-01-18T08:49:36.111Z,2.80
2023-01-18T08:50:43.265Z,2.92
2023-01-18T08:51:46.120Z,2.58
2023-01-18T08:52:49.008Z,2.78
2023-01-18T08:53:53.784Z,3.08
2023-01-18T08:54:56.614Z,3.17
2023-01-18T08:56:03.612Z,2.83
2023-01-18T08:57:06.742Z,3.00
2023-01-18T08:58:09.791Z,2.83
2023-01-18T08:59:12.757Z,3.10
2023-01-18T09:00:17.565Z,3.00
2023-01-18T09:01:23.814Z,3.10
2023-01-18T09:02:26.836Z,2.85
2023-01-18T09:03:29.734Z,3.15
2023-01-18T09:04:33.818Z,3.28
2023-01-18T09:05:37.130Z,2.88
2023-01-18T09:06:40.069Z,2.88
2023-01-18T09:07:45.127Z,2.60
2023-01-18T09:08:51.535Z,2.85
2023-01-18T09:09:54.496Z,3.55
2023-01-18T09:11:04.523Z,2.53
2023-01-18T09:12:07.427Z,2.42
2023-01-18T09:13:11.315Z,2.78
2023-01-18T09:14:15.624Z,2.70
2023-01-18T09:15:18.904Z,3.05
2023-01-18T09:16:23.031Z,2.63
2023-01-18T09:17:25.948Z,3.25
2023-01-18T09:18:30.479Z,3.00
2023-01-18T09:19:33.318Z,2.70
2023-01-18T09:20:36.558Z,2.58
2023-01-18T09:21:40.715Z,2.55
2023-01-18T09:22:45.041Z,2.85
2023-01-18T09:23:49.701Z,2.50
2023-01-18T09:24:55.664Z,2.45
2023-01-18T09:26:10.291Z,2.50
2023-01-18T09:27:14.328Z,2.70
2023-01-18T09:28:17.717Z,3.78
2023-01-18T09:29:21.112Z,3.13
2023-01-18T09:30:25.972Z,2.95
2023-01-18T09:31:29.995Z,3.05
2023-01-18T09:32:33.031Z,2.47
2023-01-18T09:33:38.159Z,2.47
2023-01-18T09:34:41.275Z,2.60
2023-01-18T09:35:44.247Z,2.42
2023-01-18T09:36:51.534Z,2.65
2023-01-18T09:37:55.372Z,2.70
2023-01-18T09:38:58.299Z,2.33
2023-01-18T09:40:03.612Z,2.22
2023-01-18T09:41:23.104Z,2.70
2023-01-18T09:42:31.402Z,2.83
2023-01-18T09:43:43.253Z,2.75
2023-01-18T09:44:48.555Z,2.38
2023-01-18T09:45:51.513Z,2.90
2023-01-18T09:47:12.141Z,2.42
2023-01-18T09:48:30.088Z,2.75
2023-01-18T09:49:58.018Z,2.83
2023-01-18T09:51:06.253Z,2.72
2023-01-18T09:52:15.337Z,2.67
2023-01-18T09:53:23.605Z,2.40
2023-01-18T09:54:40.139Z,2.72
2023-01-18T09:56:04.801Z,2.58
2023-01-18T09:57:37.171Z,2.90
2023-01-18T09:58:48.884Z,2.67
2023-01-18T10:00:05.152Z,2.90
2023-01-18T10:01:23.849Z,2.45
2023-01-18T10:02:39.517Z,2.60
2023-01-18T10:04:03.296Z,2.53
2023-01-18T10:05:13.460Z,2.55
2023-01-18T10:06:23.345Z,2.38
2023-01-18T10:07:30.525Z,2.42
2023-01-18T10:08:35.996Z,2.88
2023-01-18T10:09:50.021Z,2.38
2023-01-18T10:11:03.555Z,2.78
2023-01-18T10:12:21.671Z,2.30
2023-01-18T10:13:52.287Z,2.53
2023-01-18T10:15:22.472Z,2.60
2023-01-18T10:16:26.505Z,2.92
2023-01-18T10:17:41.448Z,2.50
2023-01-18T10:18:57.431Z,2.20
2023-01-18T10:20:01.742Z,2.50
2023-01-18T10:21:07.763Z,2.63
2023-01-18T10:22:24.469Z,2.70
2023-01-18T10:23:31.363Z,2.30
2023-01-18T10:24:50.374Z,2.83
2023-01-18T10:26:04.494Z,2.83
2023-01-18T10:27:38.900Z,2.78
2023-01-18T10:28:59.375Z,2.67
2023-01-18T10:30:23.268Z,2.15
2023-01-18T10:31:55.931Z,2.45
2023-01-18T10:33:02.492Z,2.95
2023-01-18T10:34:15.001Z,2.13
2023-01-18T10:35:33.320Z,2.40
2023-01-18T10:36:47.073Z,2.05
2023-01-18T10:37:50.697Z,2.80
2023-01-18T10:38:55.995Z,2.70
2023-01-18T10:40:02.433Z,2.63
2023-01-18T10:41:12.891Z,2.80
2023-01-18T10:42:22.761Z,2.67
2023-01-18T10:43:27.897Z,2.72
2023-01-18T10:44:31.907Z,2.25
2023-01-18T10:45:35.710Z,2.92
2023-01-18T10:46:39.159Z,2.47
2023-01-18T10:47:46.106Z,2.45
2023-01-18T10:48:52.176Z,2.60
2023-01-18T10:49:59.962Z,2.83
2023-01-18T10:51:09.223Z,2.47
2023-01-18T10:52:26.420Z,2.50
2023-01-18T10:53:38.129Z,2.50
2023-01-18T10:54:41.272Z,2.35
2023-01-18T10:55:53.574Z,2.15
2023-01-18T10:57:06.010Z,2.60
2023-01-18T10:58:13.950Z,2.33
2023-01-18T10:59:30.545Z,2.45
2023-01-18T11:00:35.640Z,2.80
2023-01-18T11:01:53.755Z,2.42
2023-01-18T11:02:58.872Z,2.25
2023-01-18T11:04:10.784Z,2.35
2023-01-18T11:05:33.498Z,2.40
2023-01-18T11:06:49.017Z,2.45
2023-01-18T11:08:13.910Z,2.67
2023-01-18T11:09:35.101Z,3.00
2023-01-18T11:10:39.398Z,2.22
2023-01-18T11:12:00.843Z,2.53
2023-01-18T11:13:03.814Z,2.33
2023-01-18T11:14:28.915Z,2.30
2023-01-18T11:15:32.363Z,2.72
2023-01-18T11:16:36.329Z,2.75
2023-01-18T11:17:43.739Z,2.70
2023-01-18T11:20:28.561Z,1.88
2023-01-18T11:21:41.381Z,2.60
2023-01-18T11:23:14.594Z,3.15
2023-01-18T11:24:27.810Z,2.40
2023-01-18T11:25:59.090Z,2.53
2023-01-18T11:27:04.593Z,2.40
2023-01-18T11:28:19.020Z,2.53
2023-01-18T11:29:27.602Z,2.20
2023-01-18T11:30:31.358Z,2.35
2023-01-18T11:31:48.828Z,2.70
2023-01-18T11:32:52.690Z,2.38
2023-01-18T11:34:03.101Z,2.28
2023-01-18T11:35:09.996Z,2.80
2023-01-18T11:36:12.898Z,1.92
2023-01-18T11:37:35.112Z,2.60
2023-01-18T11:38:40.206Z,2.45
2023-01-18T11:39:45.463Z,2.40
2023-01-18T11:40:48.552Z,3.13
2023-01-18T11:41:54.802Z,2.42
2023-01-18T11:43:12.524Z,2.50
2023-01-18T11:44:34.971Z,2.60
2023-01-18T11:45:54.631Z,2.10
2023-01-18T11:47:00.994Z,2.38
2023-01-18T11:48:28.825Z,2.38
2023-01-18T11:49:52.179Z,1.90
2023-01-18T11:51:01.132Z,2.20
2023-01-18T11:52:29.422Z,2.53
2023-01-18T11:53:54.614Z,2.30
2023-01-18T11:55:02.781Z,2.10
2023-01-18T11:56:15.931Z,2.60
2023-01-18T11:57:18.823Z,2.38
2023-01-18T11:58:26.774Z,2.28
2023-01-18T11:59:32.764Z,2.30
2023-01-18T12:00:47.458Z,2.20
2023-01-18T12:02:31.192Z,2.45
2023-01-18T12:03:45.021Z,2.10
2023-01-18T12:05:06.279Z,2.50
2023-01-18T12:06:23.328Z,2.63
2023-01-18T12:07:54.324Z,2.45
2023-01-18T12:10:27.711Z,2.05
2023-01-18T12:12:18.139Z,2.40
2023-01-18T12:13:43.674Z,2.10
2023-01-18T12:15:12.884Z,2.30
2023-01-18T12:16:21.744Z,2.50
2023-01-18T12:17:58.628Z,2.42
2023-01-18T12:19:19.995Z,2.25
2023-01-18T12:20:37.960Z,2.15
2023-01-18T12:21:56.006Z,2.20
2023-01-18T12:23:26.833Z,2.20
2023-01-18T12:24:32.543Z,2.30
2023-01-18T12:25:35.410Z,2.40
2023-01-18T12:27:03.514Z,2.55
2023-01-18T12:28:36.446Z,2.00
2023-01-18T12:30:14.017Z,2.13
2023-01-18T12:31:35.424Z,2.20
2023-01-18T12:33:42.296Z,1.98
2023-01-18T12:35:23.978Z,2.03
2023-01-18T12:36:46.528Z,2.40
2023-01-18T12:38:01.288Z,2.30
2023-01-18T12:39:21.128Z,2.22
2023-01-18T12:40:43.135Z,2.13
2023-01-18T12:42:08.845Z,2.38
2023-01-18T12:43:50.216Z,2.63
2023-01-18T12:45:42.958Z,2.00
2023-01-18T12:47:00.647Z,2.40
2023-01-18T12:48:18.940Z,2.33
2023-01-18T12:49:23.382Z,2.05
2023-01-18T12:50:30.943Z,2.25
2023-01-18T12:51:37.760Z,2.13
2023-01-18T12:52:51.724Z,2.20
2023-01-18T12:54:21.324Z,2.35
2023-01-18T12:55:26.148Z,2.38
2023-01-18T12:56:49.035Z,2.38
2023-01-18T12:57:55.708Z,2.63
2023-01-18T12:59:04.671Z,2.10
2023-01-18T13:00:31.755Z,2.80
2023-01-18T13:01:40.261Z,2.05
2023-01-18T13:02:49.711Z,2.03
2023-01-18T13:04:02.096Z,2.20
2023-01-18T13:05:16.187Z,2.33
2023-01-18T13:06:21.440Z,2.25
2023-01-18T13:07:33.850Z,2.35
2023-01-18T13:08:59.862Z,2.25
2023-01-18T13:10:04.236Z,1.88
2023-01-18T13:11:10.727Z,2.13
2023-01-18T13:12:14.493Z,3.72
2023-01-18T13:13:27.355Z,2.08
2023-01-18T13:14:41.429Z,2.10
2023-01-18T13:16:02.697Z,2.72
2023-01-18T13:17:17.837Z,2.45
2023-01-18T13:18:26.336Z,2.25
2023-01-18T13:19:41.876Z,2.22
2023-01-18T13:20:51.831Z,2.38
2023-01-18T13:21:54.863Z,2.03
2023-01-18T13:23:11.444Z,2.10
2023-01-18T13:24:23.951Z,2.60
2023-01-18T13:25:36.716Z,2.50
2023-01-18T13:27:02.736Z,2.20
2023-01-18T13:28:20.709Z,2.10
2023-01-18T13:29:28.681Z,2.28
2023-01-18T13:31:00.783Z,2.20
2023-01-18T13:31:58.908Z,2.17
2023-01-18T13:33:12.992Z,1.98
2023-01-18T13:34:47.802Z,2.30
2023-01-18T13:36:17.605Z,2.15
2023-01-18T13:37:46.325Z,2.30
2023-01-18T13:38:56.003Z,2.33
2023-01-18T13:40:01.991Z,2.13
2023-01-18T13:41:13.539Z,2.15
2023-01-18T13:42:25.047Z,2.00
2023-01-18T13:43:33.264Z,2.17
2023-01-18T13:44:47.900Z,2.40
2023-01-18T13:46:10.091Z,2.35
2023-01-18T13:48:16.203Z,2.47
2023-01-18T13:49:51.683Z,1.98
2023-01-18T13:50:48.733Z,2.17
2023-01-18T13:51:53.116Z,2.42
2023-01-18T13:53:36.597Z,2.65
2023-01-18T13:55:08.964Z,2.75
2023-01-18T13:56:09.075Z,1.80
2023-01-18T13:57:17.449Z,2.75
2023-01-18T13:58:30.881Z,2.05
2023-01-18T13:59:51.007Z,2.25
2023-01-18T14:00:56.063Z,2.33
2023-01-18T14:02:34.724Z,2.63
2023-01-18T14:03:47.352Z,2.60
2023-01-18T14:05:20.230Z,2.30
2023-01-18T14:06:37.751Z,2.08
2023-01-18T14:07:48.463Z,2.38
2023-01-18T14:08:57.584Z,2.95
2023-01-18T14:10:05.758Z,2.22
2023-01-18T14:11:30.772Z,1.92
2023-01-18T14:14:13.823Z,2.00
2023-01-18T14:15:43.137Z,2.30
2023-01-18T14:17:07.508Z,2.00
2023-01-18T14:18:27.526Z,2.13
2023-01-18T14:19:38.138Z,2.50
2023-01-18T14:20:55.615Z,2.50
2023-01-18T14:22:20.739Z,2.10
2023-01-18T14:23:27.833Z,2.35
2023-01-18T14:24:59.725Z,2.45
2023-01-18T14:26:14.589Z,2.15
2023-01-18T14:27:34.581Z,2.50
2023-01-18T14:28:53.374Z,2.05
2023-01-18T14:30:35.251Z,2.42
2023-01-18T14:32:10.023Z,2.50
2023-01-18T14:33:24.274Z,2.53
2023-01-18T14:34:32.965Z,2.53
2023-01-18T14:35:36.007Z,2.45
2023-01-18T14:36:39.059Z,2.63
2023-01-18T14:37:44.461Z,2.80
2023-01-18T14:38:47.672Z,2.58
2023-01-18T14:40:53.671Z,2.10
2023-01-18T14:41:48.144Z,2.40
2023-01-18T14:43:05.776Z,2.63
2023-01-18T14:44:18.087Z,2.45
2023-01-18T14:45:30.061Z,2.63
2023-01-18T14:46:33.226Z,2.67
2023-01-18T14:47:38.199Z,2.90
2023-01-18T14:48:50.695Z,3.08
2023-01-18T14:49:57.048Z,2.08
2023-01-18T14:51:06.621Z,2.33
2023-01-18T14:52:20.766Z,2.60
2023-01-18T14:53:30.643Z,2.50
2023-01-18T14:54:43.061Z,2.30
2023-01-18T14:56:38.610Z,1.88
2023-01-18T14:58:10.175Z,2.33
2023-01-18T14:59:21.551Z,2.58
2023-01-18T15:00:25.190Z,2.65
2023-01-18T15:01:37.748Z,2.45
2023-01-18T15:02:40.827Z,2.53
2023-01-18T15:04:06.258Z,2.58
2023-01-18T15:05:24.423Z,2.63
2023-01-18T15:06:46.686Z,1.98
2023-01-18T15:07:55.498Z,2.55
2023-01-18T15:09:01.607Z,2.38
2023-01-18T15:10:05.462Z,2.67
2023-01-18T15:11:09.823Z,2.53
2023-01-18T15:12:39.970Z,2.65
2023-01-18T15:14:15.261Z,2.63
2023-01-18T15:15:40.604Z,2.30
2023-01-18T15:16:44.102Z,2.78
2023-01-18T15:17:47.255Z,2.40
2023-01-18T15:19:17.553Z,2.13
2023-01-18T15:20:23.462Z,2.70
2023-01-18T15:21:32.281Z,2.55
2023-01-18T15:22:40.833Z,2.45
2023-01-18T15:23:44.325Z,2.63
2023-01-18T15:24:49.522Z,2.13
2023-01-18T15:25:58.504Z,2.20
2023-01-18T15:27:07.286Z,2.45
2023-01-18T15:28:23.582Z,2.63
2023-01-18T15:29:32.676Z,2.75
2023-01-18T15:30:35.684Z,2.97
2023-01-18T15:31:52.605Z,2.13
2023-01-18T15:32:58.016Z,2.42
2023-01-18T15:34:03.100Z,2.20
2023-01-18T15:35:09.399Z,3.55
2023-01-18T15:36:12.899Z,2.60
2023-01-18T15:37:25.218Z,2.30
2023-01-18T15:38:34.940Z,2.65
2023-01-18T15:39:51.799Z,2.72
2023-01-18T15:41:40.923Z,2.33
2023-01-18T15:42:39.723Z,2.20
2023-01-18T15:44:14.218Z,2.63
2023-01-18T15:45:19.962Z,2.35
2023-01-18T15:46:23.096Z,2.35
2023-01-18T15:47:38.611Z,2.25
2023-01-18T15:49:02.271Z,2.28
2023-01-18T15:50:15.936Z,2.65
2023-01-18T15:51:23.702Z,1.98
2023-01-18T15:52:45.554Z,1.80
2023-01-18T15:53:56.697Z,2.33
2023-01-18T15:55:02.616Z,2.10
2023-01-18T15:56:17.247Z,2.17
2023-01-18T15:57:21.059Z,2.72
2023-01-18T15:58:29.099Z,2.83
2023-01-18T15:59:34.066Z,2.78
2023-01-18T16:00:47.342Z,2.70
2023-01-18T16:02:08.775Z,2.70
2023-01-18T16:03:27.881Z,2.15
2023-01-18T16:05:00.978Z,2.38
2023-01-18T16:06:06.706Z,2.35
2023-01-18T16:07:35.840Z,2.60
2023-01-18T16:09:34.731Z,2.65
2023-01-18T16:10:29.519Z,2.30
2023-01-18T16:11:33.338Z,1.83
2023-01-18T16:12:39.590Z,2.38
2023-01-18T16:13:45.404Z,2.00
2023-01-18T16:14:53.813Z,2.67
2023-01-18T16:16:14.505Z,2.40
2023-01-18T16:17:25.512Z,2.53
2023-01-18T16:18:29.870Z,2.35
2023-01-18T16:19:43.341Z,2.20
2023-01-18T16:21:08.908Z,2.70
2023-01-18T16:23:07.215Z,2.40
2023-01-18T16:25:16.813Z,2.47
2023-01-18T16:26:25.802Z,2.05
2023-01-18T16:27:31.950Z,2.20
2023-01-18T16:28:57.038Z,2.17
2023-01-18T16:30:07.838Z,2.22